sensor_id;sensor_type;location;lat;lon;timestamp;temperature;humidity
14995;DHT22;7593;49.006;8.372;2024-01-10T00:02:00;-3.20;97.90
14995;DHT22;7593;49.006;8.372;2024-01-10T00:04:26;-3.20;98.00
14995;DHT22;7593;49.006;8.372;2024-01-10T00:06:53;-3.20;97.90
14995;DHT22;7593;49.006;8.372;2024-01-10T00:09:21;-3.20;98.00
14995;DHT22;7593;49.006;8.372;2024-01-10T00:11:48;-3.20;97.90
14995;DHT22;7593;49.006;8.372;2024-01-10T00:14:15;-3.20;98.00
14995;DHT22;7593;49.006;8.372;2024-01-10T00:16:42;-3.20;97.90
14995;DHT22;7593;49.006;8.372;2024-01-10T00:19:08;-3.20;97.90
14995;DHT22;7593;49.006;8.372;2024-01-10T00:21:35;-3.20;97.90
14995;DHT22;7593;49.006;8.372;2024-01-10T00:24:02;-3.20;97.90
14995;DHT22;7593;49.006;8.372;2024-01-10T00:26:30;-3.10;97.90
14995;DHT22;7593;49.006;8.372;2024-01-10T00:28:57;-3.10;97.90
14995;DHT22;7593;49.006;8.372;2024-01-10T00:31:24;-3.20;97.70
14995;DHT22;7593;49.006;8.372;2024-01-10T00:33:51;-3.10;97.90
14995;DHT22;7593;49.006;8.372;2024-01-10T00:36:18;-3.10;97.90
14995;DHT22;7593;49.006;8.372;2024-01-10T00:38:44;-3.10;97.90
14995;DHT22;7593;49.006;8.372;2024-01-10T00:41:11;-3.20;97.90
14995;DHT22;7593;49.006;8.372;2024-01-10T00:43:39;-3.10;98.00
14995;DHT22;7593;49.006;8.372;2024-01-10T00:46:06;-3.10;98.00
14995;DHT22;7593;49.006;8.372;2024-01-10T00:48:33;-3.10;97.90
14995;DHT22;7593;49.006;8.372;2024-01-10T00:51:00;-3.10;97.90
14995;DHT22;7593;49.006;8.372;2024-01-10T00:53:26;-3.10;97.90
14995;DHT22;7593;49.006;8.372;2024-01-10T00:55:53;-3.10;97.80
14995;DHT22;7593;49.006;8.372;2024-01-10T00:58:20;-3.20;97.70
14995;DHT22;7593;49.006;8.372;2024-01-10T01:00:48;-3.10;97.60
14995;DHT22;7593;49.006;8.372;2024-01-10T01:03:15;-3.10;97.70
14995;DHT22;7593;49.006;8.372;2024-01-10T01:05:41;-3.10;97.70
14995;DHT22;7593;49.006;8.372;2024-01-10T01:08:08;-3.10;97.50
14995;DHT22;7593;49.006;8.372;2024-01-10T01:10:35;-3.10;97.50
14995;DHT22;7593;49.006;8.372;2024-01-10T01:13:02;-3.10;97.50
14995;DHT22;7593;49.006;8.372;2024-01-10T01:15:28;-3.00;97.50
14995;DHT22;7593;49.006;8.372;2024-01-10T01:17:56;-3.00;97.50
14995;DHT22;7593;49.006;8.372;2024-01-10T01:20:23;-3.00;97.50
14995;DHT22;7593;49.006;8.372;2024-01-10T01:22:50;-3.00;97.50
14995;DHT22;7593;49.006;8.372;2024-01-10T01:25:18;-3.00;97.60
14995;DHT22;7593;49.006;8.372;2024-01-10T01:27:45;-3.00;97.60
14995;DHT22;7593;49.006;8.372;2024-01-10T01:30:12;-3.00;97.70
14995;DHT22;7593;49.006;8.372;2024-01-10T01:32:38;-3.00;97.70
14995;DHT22;7593;49.006;8.372;2024-01-10T01:35:07;-3.00;97.60
14995;DHT22;7593;49.006;8.372;2024-01-10T01:37:32;-3.00;97.60
14995;DHT22;7593;49.006;8.372;2024-01-10T01:39:59;-3.00;97.70
14995;DHT22;7593;49.006;8.372;2024-01-10T01:42:26;-3.10;97.70
14995;DHT22;7593;49.006;8.372;2024-01-10T01:44:53;-3.10;97.60
14995;DHT22;7593;49.006;8.372;2024-01-10T01:47:19;-3.10;97.70
14995;DHT22;7593;49.006;8.372;2024-01-10T01:49:47;-3.10;97.70
14995;DHT22;7593;49.006;8.372;2024-01-10T01:52:15;-3.20;97.70
14995;DHT22;7593;49.006;8.372;2024-01-10T01:54:42;-3.10;97.80
14995;DHT22;7593;49.006;8.372;2024-01-10T01:57:09;-3.10;97.60
14995;DHT22;7593;49.006;8.372;2024-01-10T01:59:36;-3.10;97.60
14995;DHT22;7593;49.006;8.372;2024-01-10T02:02:04;-3.10;97.70
14995;DHT22;7593;49.006;8.372;2024-01-10T02:04:31;-3.10;97.70
14995;DHT22;7593;49.006;8.372;2024-01-10T02:06:59;-3.10;97.70
14995;DHT22;7593;49.006;8.372;2024-01-10T02:09:27;-3.10;97.70
14995;DHT22;7593;49.006;8.372;2024-01-10T02:11:54;-3.10;97.60
14995;DHT22;7593;49.006;8.372;2024-01-10T02:14:21;-3.10;97.70
14995;DHT22;7593;49.006;8.372;2024-01-10T02:16:48;-3.10;97.70
14995;DHT22;7593;49.006;8.372;2024-01-10T02:19:20;-3.10;97.70
14995;DHT22;7593;49.006;8.372;2024-01-10T02:21:47;-3.10;97.70
14995;DHT22;7593;49.006;8.372;2024-01-10T02:24:14;-3.10;97.70
14995;DHT22;7593;49.006;8.372;2024-01-10T02:26:42;-3.10;97.70
14995;DHT22;7593;49.006;8.372;2024-01-10T02:29:09;-3.10;97.90
14995;DHT22;7593;49.006;8.372;2024-01-10T02:31:36;-3.10;97.70
14995;DHT22;7593;49.006;8.372;2024-01-10T02:34:02;-3.10;97.60
14995;DHT22;7593;49.006;8.372;2024-01-10T02:36:29;-3.10;97.80
14995;DHT22;7593;49.006;8.372;2024-01-10T02:38:56;-3.10;97.90
14995;DHT22;7593;49.006;8.372;2024-01-10T02:41:23;-3.10;97.80
14995;DHT22;7593;49.006;8.372;2024-01-10T02:43:51;-3.10;97.80
14995;DHT22;7593;49.006;8.372;2024-01-10T02:46:17;-3.10;97.90
14995;DHT22;7593;49.006;8.372;2024-01-10T02:48:48;-3.10;97.80
14995;DHT22;7593;49.006;8.372;2024-01-10T02:51:14;-3.10;98.00
14995;DHT22;7593;49.006;8.372;2024-01-10T02:53:41;-3.10;98.00
14995;DHT22;7593;49.006;8.372;2024-01-10T02:56:08;-3.10;98.10
14995;DHT22;7593;49.006;8.372;2024-01-10T02:58:35;-3.20;98.10
14995;DHT22;7593;49.006;8.372;2024-01-10T03:01:03;-3.10;98.10
14995;DHT22;7593;49.006;8.372;2024-01-10T03:03:30;-3.10;98.10
14995;DHT22;7593;49.006;8.372;2024-01-10T03:05:57;-3.10;98.30
14995;DHT22;7593;49.006;8.372;2024-01-10T03:08:23;-3.10;98.20
14995;DHT22;7593;49.006;8.372;2024-01-10T03:10:50;-3.10;98.30
14995;DHT22;7593;49.006;8.372;2024-01-10T03:13:17;-3.10;98.40
14995;DHT22;7593;49.006;8.372;2024-01-10T03:15:43;-3.10;98.30
14995;DHT22;7593;49.006;8.372;2024-01-10T03:18:12;-3.10;98.40
14995;DHT22;7593;49.006;8.372;2024-01-10T03:20:38;-3.10;98.50
14995;DHT22;7593;49.006;8.372;2024-01-10T03:23:05;-3.10;98.50
14995;DHT22;7593;49.006;8.372;2024-01-10T03:25:32;-3.20;98.50
14995;DHT22;7593;49.006;8.372;2024-01-10T03:27:58;-3.10;98.50
14995;DHT22;7593;49.006;8.372;2024-01-10T03:30:43;-3.20;98.60
14995;DHT22;7593;49.006;8.372;2024-01-10T03:33:32;-3.20;98.60
14995;DHT22;7593;49.006;8.372;2024-01-10T03:36:31;-3.20;98.60
14995;DHT22;7593;49.006;8.372;2024-01-10T03:39:17;-3.20;98.60
14995;DHT22;7593;49.006;8.372;2024-01-10T03:41:53;-3.30;98.70
14995;DHT22;7593;49.006;8.372;2024-01-10T03:44:20;-3.30;98.90
14995;DHT22;7593;49.006;8.372;2024-01-10T03:46:49;-3.30;99.00
14995;DHT22;7593;49.006;8.372;2024-01-10T03:49:17;-3.30;99.00
14995;DHT22;7593;49.006;8.372;2024-01-10T03:51:56;-3.30;99.00
14995;DHT22;7593;49.006;8.372;2024-01-10T03:54:24;-3.30;99.20
14995;DHT22;7593;49.006;8.372;2024-01-10T03:56:51;-3.30;99.30
14995;DHT22;7593;49.006;8.372;2024-01-10T03:59:23;-3.30;99.20
14995;DHT22;7593;49.006;8.372;2024-01-10T04:01:58;-3.30;99.20
14995;DHT22;7593;49.006;8.372;2024-01-10T04:04:38;-3.30;99.10
14995;DHT22;7593;49.006;8.372;2024-01-10T04:07:05;-3.30;99.20
14995;DHT22;7593;49.006;8.372;2024-01-10T04:09:32;-3.20;99.20
14995;DHT22;7593;49.006;8.372;2024-01-10T04:12:03;-3.20;99.10
14995;DHT22;7593;49.006;8.372;2024-01-10T04:14:33;-3.20;99.00
14995;DHT22;7593;49.006;8.372;2024-01-10T04:17:02;-3.20;99.00
14995;DHT22;7593;49.006;8.372;2024-01-10T04:19:32;-3.20;99.10
14995;DHT22;7593;49.006;8.372;2024-01-10T04:22:10;-3.20;99.10
14995;DHT22;7593;49.006;8.372;2024-01-10T04:24:40;-3.30;99.10
14995;DHT22;7593;49.006;8.372;2024-01-10T04:27:10;-3.30;99.20
14995;DHT22;7593;49.006;8.372;2024-01-10T04:29:38;-3.30;99.20
14995;DHT22;7593;49.006;8.372;2024-01-10T04:32:08;-3.30;99.30
14995;DHT22;7593;49.006;8.372;2024-01-10T04:34:40;-3.30;99.10
14995;DHT22;7593;49.006;8.372;2024-01-10T04:37:09;-3.30;99.20
14995;DHT22;7593;49.006;8.372;2024-01-10T04:39:36;-3.30;99.30
14995;DHT22;7593;49.006;8.372;2024-01-10T04:42:12;-3.30;99.30
14995;DHT22;7593;49.006;8.372;2024-01-10T04:44:39;-3.30;99.50
14995;DHT22;7593;49.006;8.372;2024-01-10T04:47:07;-3.30;99.50
14995;DHT22;7593;49.006;8.372;2024-01-10T04:49:34;-3.30;99.50
14995;DHT22;7593;49.006;8.372;2024-01-10T04:52:09;-3.30;99.50
14995;DHT22;7593;49.006;8.372;2024-01-10T04:54:41;-3.30;99.50
14995;DHT22;7593;49.006;8.372;2024-01-10T04:57:13;-3.30;99.50
14995;DHT22;7593;49.006;8.372;2024-01-10T04:59:46;-3.30;99.50
14995;DHT22;7593;49.006;8.372;2024-01-10T05:02:28;-3.30;99.50
14995;DHT22;7593;49.006;8.372;2024-01-10T05:04:56;-3.30;99.50
14995;DHT22;7593;49.006;8.372;2024-01-10T05:07:26;-3.30;99.60
14995;DHT22;7593;49.006;8.372;2024-01-10T05:09:59;-3.30;99.60
14995;DHT22;7593;49.006;8.372;2024-01-10T05:12:26;-3.30;99.60
14995;DHT22;7593;49.006;8.372;2024-01-10T05:15:00;-3.30;99.60
14995;DHT22;7593;49.006;8.372;2024-01-10T05:17:32;-3.30;99.60
14995;DHT22;7593;49.006;8.372;2024-01-10T05:20:03;-3.30;99.70
14995;DHT22;7593;49.006;8.372;2024-01-10T05:22:32;-3.30;99.70
14995;DHT22;7593;49.006;8.372;2024-01-10T05:25:08;-3.30;99.60
14995;DHT22;7593;49.006;8.372;2024-01-10T05:27:40;-3.30;99.60
14995;DHT22;7593;49.006;8.372;2024-01-10T05:30:08;-3.30;99.70
14995;DHT22;7593;49.006;8.372;2024-01-10T05:32:37;-3.40;99.80
14995;DHT22;7593;49.006;8.372;2024-01-10T05:35:06;-3.30;99.90
14995;DHT22;7593;49.006;8.372;2024-01-10T05:37:35;-3.30;99.90
14995;DHT22;7593;49.006;8.372;2024-01-10T05:40:02;-3.40;99.90
14995;DHT22;7593;49.006;8.372;2024-01-10T05:42:30;-3.30;99.90
14995;DHT22;7593;49.006;8.372;2024-01-10T05:45:01;-3.40;99.90
14995;DHT22;7593;49.006;8.372;2024-01-10T05:47:28;-3.40;99.90
14995;DHT22;7593;49.006;8.372;2024-01-10T05:49:55;-3.40;99.90
14995;DHT22;7593;49.006;8.372;2024-01-10T05:52:22;-3.40;99.90
14995;DHT22;7593;49.006;8.372;2024-01-10T05:54:50;-3.40;99.90
14995;DHT22;7593;49.006;8.372;2024-01-10T05:57:17;-3.40;99.90
14995;DHT22;7593;49.006;8.372;2024-01-10T05:59:44;-3.50;99.90
14995;DHT22;7593;49.006;8.372;2024-01-10T06:02:11;-3.50;99.90
14995;DHT22;7593;49.006;8.372;2024-01-10T06:04:38;-3.50;99.90
14995;DHT22;7593;49.006;8.372;2024-01-10T06:07:04;-3.50;99.90
14995;DHT22;7593;49.006;8.372;2024-01-10T06:09:31;-3.50;99.90
14995;DHT22;7593;49.006;8.372;2024-01-10T06:12:00;-3.60;99.90
14995;DHT22;7593;49.006;8.372;2024-01-10T06:14:26;-3.60;99.90
14995;DHT22;7593;49.006;8.372;2024-01-10T06:16:53;-3.60;99.90
14995;DHT22;7593;49.006;8.372;2024-01-10T06:19:20;-3.60;99.90
14995;DHT22;7593;49.006;8.372;2024-01-10T06:21:47;-3.60;99.90
14995;DHT22;7593;49.006;8.372;2024-01-10T06:24:13;-3.70;99.90
14995;DHT22;7593;49.006;8.372;2024-01-10T06:26:40;-3.60;99.90
14995;DHT22;7593;49.006;8.372;2024-01-10T06:29:11;-3.70;99.90
14995;DHT22;7593;49.006;8.372;2024-01-10T06:31:38;-3.70;99.90
14995;DHT22;7593;49.006;8.372;2024-01-10T06:34:05;-3.70;99.90
14995;DHT22;7593;49.006;8.372;2024-01-10T06:36:32;-3.70;99.90
14995;DHT22;7593;49.006;8.372;2024-01-10T06:38:58;-3.70;99.90
14995;DHT22;7593;49.006;8.372;2024-01-10T06:41:25;-3.70;99.90
14995;DHT22;7593;49.006;8.372;2024-01-10T06:43:52;-3.70;99.90
14995;DHT22;7593;49.006;8.372;2024-01-10T06:46:20;-3.60;99.90
14995;DHT22;7593;49.006;8.372;2024-01-10T06:48:47;-3.70;99.90
14995;DHT22;7593;49.006;8.372;2024-01-10T06:51:15;-3.60;99.90
14995;DHT22;7593;49.006;8.372;2024-01-10T06:53:42;-3.60;99.90
14995;DHT22;7593;49.006;8.372;2024-01-10T06:56:10;-3.60;99.90
14995;DHT22;7593;49.006;8.372;2024-01-10T06:58:38;-3.60;99.90
14995;DHT22;7593;49.006;8.372;2024-01-10T07:01:05;-3.60;99.90
14995;DHT22;7593;49.006;8.372;2024-01-10T07:03:33;-3.60;99.90
14995;DHT22;7593;49.006;8.372;2024-01-10T07:06:00;-3.60;99.90
14995;DHT22;7593;49.006;8.372;2024-01-10T07:08:27;-3.60;99.90
14995;DHT22;7593;49.006;8.372;2024-01-10T07:10:56;-3.70;99.90
14995;DHT22;7593;49.006;8.372;2024-01-10T07:13:23;-3.70;99.90
14995;DHT22;7593;49.006;8.372;2024-01-10T07:15:49;-3.70;99.90
14995;DHT22;7593;49.006;8.372;2024-01-10T07:18:18;-3.60;99.90
14995;DHT22;7593;49.006;8.372;2024-01-10T07:20:46;-3.70;99.90
14995;DHT22;7593;49.006;8.372;2024-01-10T07:23:13;-3.60;99.90
14995;DHT22;7593;49.006;8.372;2024-01-10T07:25:39;-3.60;99.90
14995;DHT22;7593;49.006;8.372;2024-01-10T07:28:06;-3.60;99.90
14995;DHT22;7593;49.006;8.372;2024-01-10T07:30:33;-3.60;99.90
14995;DHT22;7593;49.006;8.372;2024-01-10T07:33:00;-3.60;99.90
14995;DHT22;7593;49.006;8.372;2024-01-10T07:35:27;-3.50;99.90
14995;DHT22;7593;49.006;8.372;2024-01-10T07:37:56;-3.50;99.90
14995;DHT22;7593;49.006;8.372;2024-01-10T07:40:22;-3.50;99.90
14995;DHT22;7593;49.006;8.372;2024-01-10T07:42:49;-3.50;99.90
14995;DHT22;7593;49.006;8.372;2024-01-10T07:45:16;-3.50;99.90
14995;DHT22;7593;49.006;8.372;2024-01-10T07:47:43;-3.50;99.90
14995;DHT22;7593;49.006;8.372;2024-01-10T07:50:12;-3.50;99.90
14995;DHT22;7593;49.006;8.372;2024-01-10T07:52:40;-3.50;99.90
14995;DHT22;7593;49.006;8.372;2024-01-10T07:55:09;-3.50;99.90
14995;DHT22;7593;49.006;8.372;2024-01-10T07:57:35;-3.50;99.90
14995;DHT22;7593;49.006;8.372;2024-01-10T08:00:04;-3.50;99.90
14995;DHT22;7593;49.006;8.372;2024-01-10T08:02:35;-3.50;99.90
14995;DHT22;7593;49.006;8.372;2024-01-10T08:05:02;-3.50;99.90
14995;DHT22;7593;49.006;8.372;2024-01-10T08:07:31;-3.50;99.90
14995;DHT22;7593;49.006;8.372;2024-01-10T08:09:58;-3.50;99.90
14995;DHT22;7593;49.006;8.372;2024-01-10T08:12:26;-3.40;99.90
14995;DHT22;7593;49.006;8.372;2024-01-10T08:14:53;-3.40;99.90
14995;DHT22;7593;49.006;8.372;2024-01-10T08:17:20;-3.40;99.90
14995;DHT22;7593;49.006;8.372;2024-01-10T08:19:48;-3.40;99.90
14995;DHT22;7593;49.006;8.372;2024-01-10T08:22:15;-3.30;99.90
14995;DHT22;7593;49.006;8.372;2024-01-10T08:24:42;-3.30;99.90
14995;DHT22;7593;49.006;8.372;2024-01-10T08:27:10;-3.20;99.90
14995;DHT22;7593;49.006;8.372;2024-01-10T08:29:38;-3.20;99.90
14995;DHT22;7593;49.006;8.372;2024-01-10T08:32:05;-3.10;99.90
14995;DHT22;7593;49.006;8.372;2024-01-10T08:34:32;-3.00;99.90
14995;DHT22;7593;49.006;8.372;2024-01-10T08:37:02;-3.00;99.90
14995;DHT22;7593;49.006;8.372;2024-01-10T08:39:32;-2.90;99.90
14995;DHT22;7593;49.006;8.372;2024-01-10T08:42:02;-2.80;99.90
14995;DHT22;7593;49.006;8.372;2024-01-10T08:44:32;-2.70;99.90
14995;DHT22;7593;49.006;8.372;2024-01-10T08:47:03;-2.70;99.90
14995;DHT22;7593;49.006;8.372;2024-01-10T08:49:32;-2.60;99.90
14995;DHT22;7593;49.006;8.372;2024-01-10T08:52:03;-2.60;99.90
14995;DHT22;7593;49.006;8.372;2024-01-10T08:54:40;-2.60;99.90
14995;DHT22;7593;49.006;8.372;2024-01-10T08:57:09;-2.50;99.90
14995;DHT22;7593;49.006;8.372;2024-01-10T08:59:40;-2.50;99.90
14995;DHT22;7593;49.006;8.372;2024-01-10T09:02:09;-2.50;99.90
14995;DHT22;7593;49.006;8.372;2024-01-10T09:04:37;-2.50;99.90
14995;DHT22;7593;49.006;8.372;2024-01-10T09:07:09;-2.50;99.90
14995;DHT22;7593;49.006;8.372;2024-01-10T09:09:36;-2.50;99.90
14995;DHT22;7593;49.006;8.372;2024-01-10T09:12:06;-2.40;99.90
14995;DHT22;7593;49.006;8.372;2024-01-10T09:14:33;-2.40;99.90
14995;DHT22;7593;49.006;8.372;2024-01-10T09:17:00;-2.40;99.90
14995;DHT22;7593;49.006;8.372;2024-01-10T09:19:30;-2.30;99.90
14995;DHT22;7593;49.006;8.372;2024-01-10T09:21:57;-2.30;99.90
14995;DHT22;7593;49.006;8.372;2024-01-10T09:24:24;-2.20;99.90
14995;DHT22;7593;49.006;8.372;2024-01-10T09:26:51;-2.10;99.90
14995;DHT22;7593;49.006;8.372;2024-01-10T09:29:19;-2.10;99.90
14995;DHT22;7593;49.006;8.372;2024-01-10T09:31:45;-2.00;99.90
14995;DHT22;7593;49.006;8.372;2024-01-10T09:34:15;-1.80;99.90
14995;DHT22;7593;49.006;8.372;2024-01-10T09:36:43;-1.70;99.90
14995;DHT22;7593;49.006;8.372;2024-01-10T09:39:10;-1.70;99.90
14995;DHT22;7593;49.006;8.372;2024-01-10T09:41:45;-1.60;99.90
14995;DHT22;7593;49.006;8.372;2024-01-10T09:44:12;-1.60;99.80
14995;DHT22;7593;49.006;8.372;2024-01-10T09:46:41;-1.50;99.70
14995;DHT22;7593;49.006;8.372;2024-01-10T09:49:09;-1.40;99.90
14995;DHT22;7593;49.006;8.372;2024-01-10T09:51:37;-1.40;99.60
14995;DHT22;7593;49.006;8.372;2024-01-10T09:54:05;-1.30;99.60
14995;DHT22;7593;49.006;8.372;2024-01-10T09:56:32;-1.30;99.60
14995;DHT22;7593;49.006;8.372;2024-01-10T09:59:01;-1.20;99.60
14995;DHT22;7593;49.006;8.372;2024-01-10T10:01:30;-1.10;99.50
14995;DHT22;7593;49.006;8.372;2024-01-10T10:03:57;-1.00;99.60
14995;DHT22;7593;49.006;8.372;2024-01-10T10:06:24;-0.80;98.90
14995;DHT22;7593;49.006;8.372;2024-01-10T10:08:51;-0.80;98.70
14995;DHT22;7593;49.006;8.372;2024-01-10T10:11:19;-0.70;98.70
14995;DHT22;7593;49.006;8.372;2024-01-10T10:13:46;-0.70;98.80
14995;DHT22;7593;49.006;8.372;2024-01-10T10:16:13;-0.50;98.80
14995;DHT22;7593;49.006;8.372;2024-01-10T10:18:40;-0.40;98.60
14995;DHT22;7593;49.006;8.372;2024-01-10T10:21:09;-0.20;98.50
14995;DHT22;7593;49.006;8.372;2024-01-10T10:23:37;0.00;98.30
14995;DHT22;7593;49.006;8.372;2024-01-10T10:26:11;0.10;97.90
14995;DHT22;7593;49.006;8.372;2024-01-10T10:28:41;0.10;97.80
14995;DHT22;7593;49.006;8.372;2024-01-10T10:31:08;0.10;97.70
14995;DHT22;7593;49.006;8.372;2024-01-10T10:33:35;0.00;97.70
14995;DHT22;7593;49.006;8.372;2024-01-10T10:36:02;0.00;98.10
14995;DHT22;7593;49.006;8.372;2024-01-10T10:38:29;0.10;98.10
14995;DHT22;7593;49.006;8.372;2024-01-10T10:40:59;0.20;97.70
14995;DHT22;7593;49.006;8.372;2024-01-10T10:43:26;0.40;97.50
14995;DHT22;7593;49.006;8.372;2024-01-10T10:45:54;0.60;97.30
14995;DHT22;7593;49.006;8.372;2024-01-10T10:48:22;0.80;97.10
14995;DHT22;7593;49.006;8.372;2024-01-10T10:50:54;1.00;96.70
14995;DHT22;7593;49.006;8.372;2024-01-10T10:53:25;1.30;96.30
14995;DHT22;7593;49.006;8.372;2024-01-10T10:55:54;1.40;96.30
14995;DHT22;7593;49.006;8.372;2024-01-10T10:58:21;1.60;95.70
14995;DHT22;7593;49.006;8.372;2024-01-10T11:00:49;1.60;95.40
14995;DHT22;7593;49.006;8.372;2024-01-10T11:03:18;1.50;95.50
14995;DHT22;7593;49.006;8.372;2024-01-10T11:05:46;1.50;95.50
14995;DHT22;7593;49.006;8.372;2024-01-10T11:08:16;1.50;95.60
14995;DHT22;7593;49.006;8.372;2024-01-10T11:10:46;1.50;95.40
14995;DHT22;7593;49.006;8.372;2024-01-10T11:13:27;1.30;95.50
14995;DHT22;7593;49.006;8.372;2024-01-10T11:16:41;1.30;95.60
14995;DHT22;7593;49.006;8.372;2024-01-10T11:19:31;1.20;95.50
14995;DHT22;7593;49.006;8.372;2024-01-10T11:22:15;1.20;95.90
14995;DHT22;7593;49.006;8.372;2024-01-10T11:24:44;1.30;95.80
14995;DHT22;7593;49.006;8.372;2024-01-10T11:27:12;1.30;95.90
14995;DHT22;7593;49.006;8.372;2024-01-10T11:29:39;1.30;95.90
14995;DHT22;7593;49.006;8.372;2024-01-10T11:32:06;1.40;95.70
14995;DHT22;7593;49.006;8.372;2024-01-10T11:34:36;1.40;95.70
14995;DHT22;7593;49.006;8.372;2024-01-10T11:37:09;1.40;95.80
14995;DHT22;7593;49.006;8.372;2024-01-10T11:39:36;1.50;95.90
14995;DHT22;7593;49.006;8.372;2024-01-10T11:42:04;1.60;95.50
14995;DHT22;7593;49.006;8.372;2024-01-10T11:44:31;1.50;95.20
14995;DHT22;7593;49.006;8.372;2024-01-10T11:46:59;1.40;95.40
14995;DHT22;7593;49.006;8.372;2024-01-10T11:49:26;1.40;95.50
14995;DHT22;7593;49.006;8.372;2024-01-10T11:51:55;1.40;95.50
14995;DHT22;7593;49.006;8.372;2024-01-10T11:54:39;1.40;95.70
14995;DHT22;7593;49.006;8.372;2024-01-10T11:57:14;1.40;95.50
14995;DHT22;7593;49.006;8.372;2024-01-10T11:59:45;1.20;95.40
14995;DHT22;7593;49.006;8.372;2024-01-10T12:02:12;1.10;95.60
14995;DHT22;7593;49.006;8.372;2024-01-10T12:04:40;1.10;95.90
14995;DHT22;7593;49.006;8.372;2024-01-10T12:07:08;1.20;95.80
14995;DHT22;7593;49.006;8.372;2024-01-10T12:09:35;1.30;95.80
14995;DHT22;7593;49.006;8.372;2024-01-10T12:12:03;1.30;95.80
14995;DHT22;7593;49.006;8.372;2024-01-10T12:14:30;1.40;95.50
14995;DHT22;7593;49.006;8.372;2024-01-10T12:16:57;1.40;95.40
14995;DHT22;7593;49.006;8.372;2024-01-10T12:19:24;1.40;95.40
14995;DHT22;7593;49.006;8.372;2024-01-10T12:21:51;1.40;95.40
14995;DHT22;7593;49.006;8.372;2024-01-10T12:24:20;1.50;95.20
14995;DHT22;7593;49.006;8.372;2024-01-10T12:26:48;1.40;95.30
14995;DHT22;7593;49.006;8.372;2024-01-10T12:29:17;1.40;95.40
14995;DHT22;7593;49.006;8.372;2024-01-10T12:31:45;1.50;95.50
14995;DHT22;7593;49.006;8.372;2024-01-10T12:34:12;1.50;95.30
14995;DHT22;7593;49.006;8.372;2024-01-10T12:36:40;1.60;95.20
14995;DHT22;7593;49.006;8.372;2024-01-10T12:39:06;1.60;95.20
14995;DHT22;7593;49.006;8.372;2024-01-10T12:41:35;1.60;95.20
14995;DHT22;7593;49.006;8.372;2024-01-10T12:44:04;1.60;95.10
14995;DHT22;7593;49.006;8.372;2024-01-10T12:46:32;1.50;95.00
14995;DHT22;7593;49.006;8.372;2024-01-10T12:49:00;1.50;95.00
14995;DHT22;7593;49.006;8.372;2024-01-10T12:51:28;1.50;95.00
14995;DHT22;7593;49.006;8.372;2024-01-10T12:53:56;1.50;95.00
14995;DHT22;7593;49.006;8.372;2024-01-10T12:56:24;1.60;95.10
14995;DHT22;7593;49.006;8.372;2024-01-10T12:58:52;1.60;95.20
14995;DHT22;7593;49.006;8.372;2024-01-10T13:01:19;1.60;95.10
14995;DHT22;7593;49.006;8.372;2024-01-10T13:03:46;1.60;95.20
14995;DHT22;7593;49.006;8.372;2024-01-10T13:06:14;1.60;95.20
14995;DHT22;7593;49.006;8.372;2024-01-10T13:08:41;1.60;95.20
14995;DHT22;7593;49.006;8.372;2024-01-10T13:11:08;1.60;95.40
14995;DHT22;7593;49.006;8.372;2024-01-10T13:13:35;1.60;95.60
14995;DHT22;7593;49.006;8.372;2024-01-10T13:16:04;1.60;95.40
14995;DHT22;7593;49.006;8.372;2024-01-10T13:18:31;1.70;95.40
14995;DHT22;7593;49.006;8.372;2024-01-10T13:20:58;1.70;95.30
14995;DHT22;7593;49.006;8.372;2024-01-10T13:23:25;1.60;95.40
14995;DHT22;7593;49.006;8.372;2024-01-10T13:25:51;1.70;95.50
14995;DHT22;7593;49.006;8.372;2024-01-10T13:28:18;1.70;95.50
14995;DHT22;7593;49.006;8.372;2024-01-10T13:30:45;1.80;95.50
14995;DHT22;7593;49.006;8.372;2024-01-10T13:33:13;1.70;95.50
14995;DHT22;7593;49.006;8.372;2024-01-10T13:35:40;1.70;95.60
14995;DHT22;7593;49.006;8.372;2024-01-10T13:38:07;1.70;95.50
14995;DHT22;7593;49.006;8.372;2024-01-10T13:40:35;1.70;96.10
14995;DHT22;7593;49.006;8.372;2024-01-10T13:43:04;1.60;95.90
14995;DHT22;7593;49.006;8.372;2024-01-10T13:45:31;1.60;96.00
14995;DHT22;7593;49.006;8.372;2024-01-10T13:47:57;1.60;95.90
14995;DHT22;7593;49.006;8.372;2024-01-10T13:50:27;1.60;95.90
14995;DHT22;7593;49.006;8.372;2024-01-10T13:52:55;1.60;96.10
14995;DHT22;7593;49.006;8.372;2024-01-10T13:55:22;1.60;96.00
14995;DHT22;7593;49.006;8.372;2024-01-10T13:57:50;1.60;96.20
14995;DHT22;7593;49.006;8.372;2024-01-10T14:00:19;1.60;96.20
14995;DHT22;7593;49.006;8.372;2024-01-10T14:02:45;1.70;96.20
14995;DHT22;7593;49.006;8.372;2024-01-10T14:05:12;1.70;96.00
14995;DHT22;7593;49.006;8.372;2024-01-10T14:07:40;1.80;96.10
14995;DHT22;7593;49.006;8.372;2024-01-10T14:10:09;1.80;96.00
14995;DHT22;7593;49.006;8.372;2024-01-10T14:12:36;1.90;96.00
14995;DHT22;7593;49.006;8.372;2024-01-10T14:15:04;1.80;96.00
14995;DHT22;7593;49.006;8.372;2024-01-10T14:17:31;1.80;96.00
14995;DHT22;7593;49.006;8.372;2024-01-10T14:19:57;1.80;96.00
14995;DHT22;7593;49.006;8.372;2024-01-10T14:22:24;1.70;96.10
14995;DHT22;7593;49.006;8.372;2024-01-10T14:24:53;1.80;96.20
14995;DHT22;7593;49.006;8.372;2024-01-10T14:27:20;1.70;96.30
14995;DHT22;7593;49.006;8.372;2024-01-10T14:29:47;1.70;96.20
14995;DHT22;7593;49.006;8.372;2024-01-10T14:32:14;1.70;96.20
14995;DHT22;7593;49.006;8.372;2024-01-10T14:34:40;1.70;96.20
14995;DHT22;7593;49.006;8.372;2024-01-10T14:37:07;1.70;96.30
14995;DHT22;7593;49.006;8.372;2024-01-10T14:39:34;1.70;96.40
14995;DHT22;7593;49.006;8.372;2024-01-10T14:42:06;1.70;96.50
14995;DHT22;7593;49.006;8.372;2024-01-10T14:44:34;1.60;96.60
14995;DHT22;7593;49.006;8.372;2024-01-10T14:47:01;1.50;96.60
14995;DHT22;7593;49.006;8.372;2024-01-10T14:49:28;1.40;96.80
14995;DHT22;7593;49.006;8.372;2024-01-10T14:51:56;1.40;96.80
14995;DHT22;7593;49.006;8.372;2024-01-10T14:54:22;1.30;96.90
14995;DHT22;7593;49.006;8.372;2024-01-10T14:56:49;1.20;97.20
14995;DHT22;7593;49.006;8.372;2024-01-10T14:59:18;1.10;97.30
14995;DHT22;7593;49.006;8.372;2024-01-10T15:01:45;1.10;97.40
14995;DHT22;7593;49.006;8.372;2024-01-10T15:04:12;1.00;97.50
14995;DHT22;7593;49.006;8.372;2024-01-10T15:06:43;1.00;97.60
14995;DHT22;7593;49.006;8.372;2024-01-10T15:09:10;1.00;97.80
14995;DHT22;7593;49.006;8.372;2024-01-10T15:11:38;0.90;98.10
14995;DHT22;7593;49.006;8.372;2024-01-10T15:14:05;0.90;98.00
14995;DHT22;7593;49.006;8.372;2024-01-10T15:16:33;0.90;98.20
14995;DHT22;7593;49.006;8.372;2024-01-10T15:19:00;0.90;98.10
14995;DHT22;7593;49.006;8.372;2024-01-10T15:21:27;0.90;98.00
14995;DHT22;7593;49.006;8.372;2024-01-10T15:23:55;0.80;98.10
14995;DHT22;7593;49.006;8.372;2024-01-10T15:26:22;0.80;98.40
14995;DHT22;7593;49.006;8.372;2024-01-10T15:28:49;0.80;98.40
14995;DHT22;7593;49.006;8.372;2024-01-10T15:31:16;0.70;98.60
14995;DHT22;7593;49.006;8.372;2024-01-10T15:33:44;0.70;98.60
14995;DHT22;7593;49.006;8.372;2024-01-10T15:36:11;0.70;98.70
14995;DHT22;7593;49.006;8.372;2024-01-10T15:38:39;0.60;98.80
14995;DHT22;7593;49.006;8.372;2024-01-10T15:41:06;0.60;98.90
14995;DHT22;7593;49.006;8.372;2024-01-10T15:43:35;0.60;99.00
14995;DHT22;7593;49.006;8.372;2024-01-10T15:46:02;0.60;99.20
14995;DHT22;7593;49.006;8.372;2024-01-10T15:48:29;0.60;99.20
14995;DHT22;7593;49.006;8.372;2024-01-10T15:50:57;0.50;99.50
14995;DHT22;7593;49.006;8.372;2024-01-10T15:53:24;0.50;99.30
14995;DHT22;7593;49.006;8.372;2024-01-10T15:55:51;0.40;99.40
14995;DHT22;7593;49.006;8.372;2024-01-10T15:58:18;0.40;99.50
14995;DHT22;7593;49.006;8.372;2024-01-10T16:00:45;0.30;99.60